Time;durP1;ratioP1;P1;durP2;ratioP2;P2;SDS_P1;SDS_P2;PMS_P1;PMS_P2;Temp;Humidity;BMP_temperature;BMP_pressure;BME280_temperature;BME280_humidity;BME280_pressure;Samples;Min_cycle;Max_cycle;Signal;HPM_P1;HPM_P2
2021/11/01 00:00:53;;;;;;;920.97;737.55;;;;;;;;;;5050664;28;20087;-78
2021/11/01 00:03:19;;;;;;;915.75;727.20;;;;;;;;;;5084058;28;20488;-78
2021/11/01 00:05:46;;;;;;;912.85;719.65;;;;;;;;;;5071463;28;20034;-78
2021/11/01 00:08:13;;;;;;;919.20;736.85;;;;;;;;;;5071296;28;20054;-79
2021/11/01 00:10:39;;;;;;;925.67;745.97;;;;;;;;;;5071378;28;20512;-76
2021/11/01 00:13:05;;;;;;;909.25;711.50;;;;;;;;;;5088921;28;20043;-77
2021/11/01 00:15:32;;;;;;;913.90;719.10;;;;;;;;;;5070747;28;20445;-78
2021/11/01 00:17:58;;;;;;;905.85;699.90;;;;;;;;;;5067948;28;20059;-76
2021/11/01 00:20:25;;;;;;;915.83;720.33;;;;;;;;;;5071223;28;20024;-76
2021/11/01 00:22:51;;;;;;;915.50;724.80;;;;;;;;;;5071239;28;20102;-77
2021/11/01 00:25:17;;;;;;;911.45;710.58;;;;;;;;;;5088685;28;20035;-77
2021/11/01 00:27:44;;;;;;;918.88;733.10;;;;;;;;;;5070688;28;20075;-78
2021/11/01 00:30:11;;;;;;;913.38;713.42;;;;;;;;;;5089042;28;20549;-76
2021/11/01 00:32:38;;;;;;;897.80;662.95;;;;;;;;;;5070403;28;20074;-78
2021/11/01 00:35:05;;;;;;;886.78;641.85;;;;;;;;;;5088840;28;20445;-78
2021/11/01 00:37:31;;;;;;;900.92;677.33;;;;;;;;;;5070208;28;20036;-78
2021/11/01 00:39:59;;;;;;;898.88;671.45;;;;;;;;;;5088526;28;20078;-77
2021/11/01 00:42:26;;;;;;;906.53;688.35;;;;;;;;;;5085686;28;20131;-77
2021/11/01 00:44:52;;;;;;;905.65;685.65;;;;;;;;;;5088772;28;20035;-77
2021/11/01 00:47:18;;;;;;;900.83;675.63;;;;;;;;;;5070009;28;20147;-79
2021/11/01 00:49:44;;;;;;;904.83;684.83;;;;;;;;;;5068886;28;20395;-77
2021/11/01 00:52:10;;;;;;;896.33;654.60;;;;;;;;;;5070011;28;20032;-76
2021/11/01 00:54:36;;;;;;;896.92;663.60;;;;;;;;;;5069635;28;20123;-77
2021/11/01 00:57:04;;;;;;;899.72;671.00;;;;;;;;;;5070289;28;20035;-76
2021/11/01 00:59:30;;;;;;;884.55;622.45;;;;;;;;;;5087932;28;20074;-75
2021/11/01 01:01:57;;;;;;;903.83;686.97;;;;;;;;;;5070182;28;20028;-76
2021/11/01 01:04:24;;;;;;;899.47;670.67;;;;;;;;;;5087473;28;20024;-77
2021/11/01 01:06:51;;;;;;;909.38;696.13;;;;;;;;;;5088189;28;20531;-78
2021/11/01 01:09:17;;;;;;;905.85;677.47;;;;;;;;;;5069560;28;20447;-77
2021/11/01 01:11:43;;;;;;;890.65;641.70;;;;;;;;;;5087999;28;20604;-77
2021/11/01 01:14:10;;;;;;;914.10;714.47;;;;;;;;;;5084788;28;20020;-78
2021/11/01 01:16:45;;;;;;;908.08;692.13;;;;;;;;;;5087490;28;20024;-78
2021/11/01 01:19:20;;;;;;;899.85;665.60;;;;;;;;;;5073711;28;20066;-79
2021/11/01 01:24:32;;;;;;;896.83;654.15;;;;;;;;;;5087557;28;20453;-77
2021/11/01 01:26:58;;;;;;;899.58;666.33;;;;;;;;;;5088093;28;20028;-77
2021/11/01 01:29:24;;;;;;;918.75;709.17;;;;;;;;;;5087292;28;20843;-76
2021/11/01 01:31:51;;;;;;;895.58;654.70;;;;;;;;;;5087520;28;20472;-75
2021/11/01 01:34:17;;;;;;;906.13;684.45;;;;;;;;;;5088039;28;20678;-78
2021/11/01 01:36:45;;;;;;;891.67;645.80;;;;;;;;;;5070200;28;20495;-79
2021/11/01 01:39:11;;;;;;;900.65;668.28;;;;;;;;;;5069162;28;20543;-78
2021/11/01 01:41:37;;;;;;;903.42;674.58;;;;;;;;;;5067531;28;20115;-77
2021/11/01 01:44:03;;;;;;;901.33;664.22;;;;;;;;;;5065840;28;20120;-77
2021/11/01 01:46:30;;;;;;;904.35;674.92;;;;;;;;;;5052466;28;20063;-78
2021/11/01 01:48:57;;;;;;;899.47;662.22;;;;;;;;;;5064694;28;20116;-77
2021/11/01 01:51:26;;;;;;;919.40;683.03;;;;;;;;;;5065862;28;20025;-78
2021/11/01 01:53:52;;;;;;;893.25;639.83;;;;;;;;;;5064855;28;20037;-78
2021/11/01 01:56:19;;;;;;;897.33;653.70;;;;;;;;;;5080965;28;20028;-77
2021/11/01 01:58:56;;;;;;;893.08;641.47;;;;;;;;;;5067936;28;20024;-78
2021/11/01 02:01:31;;;;;;;884.90;606.58;;;;;;;;;;5070634;28;20264;-77
2021/11/01 02:03:57;;;;;;;881.47;601.63;;;;;;;;;;5072710;28;20024;-77
2021/11/01 02:06:26;;;;;;;895.83;645.72;;;;;;;;;;5087134;28;20043;-77
2021/11/01 02:08:55;;;;;;;887.30;616.28;;;;;;;;;;5085846;28;20416;-77
2021/11/01 02:11:22;;;;;;;885.85;611.90;;;;;;;;;;5087330;28;20031;-77
2021/11/01 02:13:51;;;;;;;881.78;604.92;;;;;;;;;;5086383;28;20122;-77
2021/11/01 02:16:17;;;;;;;887.75;618.92;;;;;;;;;;5085825;28;20032;-76
2021/11/01 02:18:46;;;;;;;873.95;572.30;;;;;;;;;;5084140;28;20076;-77
2021/11/01 02:21:16;;;;;;;874.53;571.67;;;;;;;;;;5078140;28;20077;-77
2021/11/01 02:23:48;;;;;;;880.85;588.72;;;;;;;;;;5066454;28;20035;-78
2021/11/01 02:26:16;;;;;;;875.58;574.50;;;;;;;;;;5048981;28;20028;-76
2021/11/01 02:28:45;;;;;;;886.15;611.45;;;;;;;;;;5064839;28;20031;-78
2021/11/01 02:31:12;;;;;;;880.85;567.60;;;;;;;;;;5048296;28;20067;-78
2021/11/01 02:33:38;;;;;;;886.80;604.38;;;;;;;;;;5048871;28;20023;-77
2021/11/01 02:36:05;;;;;;;869.03;555.22;;;;;;;;;;5049085;28;20162;-77
2021/11/01 02:38:31;;;;;;;887.65;608.88;;;;;;;;;;5080106;28;20410;-78
2021/11/01 02:40:59;;;;;;;874.28;573.20;;;;;;;;;;5072336;28;20027;-76
2021/11/01 02:43:28;;;;;;;878.45;586.63;;;;;;;;;;5064437;28;20119;-78
2021/11/01 02:45:57;;;;;;;876.63;575.08;;;;;;;;;;5051834;28;20033;-77
2021/11/01 02:48:23;;;;;;;866.50;536.42;;;;;;;;;;5050147;28;20500;-77
2021/11/01 02:50:49;;;;;;;868.08;544.00;;;;;;;;;;5052114;28;20033;-76
2021/11/01 02:53:15;;;;;;;862.95;530.13;;;;;;;;;;5051823;28;20028;-77
2021/11/01 02:55:41;;;;;;;876.67;573.38;;;;;;;;;;5070261;28;20029;-78
2021/11/01 02:58:08;;;;;;;867.92;544.03;;;;;;;;;;5060086;28;20025;-77
2021/11/01 03:00:34;;;;;;;875.45;560.30;;;;;;;;;;5069113;28;20031;-77
2021/11/01 03:03:00;;;;;;;876.70;565.03;;;;;;;;;;5052672;28;20131;-77
2021/11/01 03:05:30;;;;;;;879.30;581.17;;;;;;;;;;5052896;28;20078;-77
2021/11/01 03:07:57;;;;;;;866.78;537.20;;;;;;;;;;5058520;28;20051;-76
2021/11/01 03:10:36;;;;;;;875.78;566.65;;;;;;;;;;5072960;28;20050;-76
2021/11/01 03:13:02;;;;;;;870.97;555.88;;;;;;;;;;5076024;28;20065;-77
2021/11/01 03:15:28;;;;;;;870.92;557.70;;;;;;;;;;5077069;28;20046;-77
2021/11/01 03:18:04;;;;;;;882.92;588.28;;;;;;;;;;5075116;28;20101;-76
2021/11/01 03:20:36;;;;;;;870.28;546.50;;;;;;;;;;5076699;28;20122;-76
2021/11/01 03:23:14;;;;;;;860.00;512.33;;;;;;;;;;5072685;28;20031;-77
2021/11/01 03:25:42;;;;;;;862.75;514.25;;;;;;;;;;5090459;28;20028;-77
2021/11/01 03:28:09;;;;;;;877.17;555.58;;;;;;;;;;5089715;28;20039;-76
2021/11/01 03:30:36;;;;;;;865.55;531.25;;;;;;;;;;5089361;28;20091;-77
2021/11/01 03:33:02;;;;;;;869.10;542.50;;;;;;;;;;5086475;28;20161;-76
2021/11/01 03:35:29;;;;;;;864.70;525.60;;;;;;;;;;5071705;28;20472;-77
2021/11/01 03:37:57;;;;;;;865.67;533.67;;;;;;;;;;5071435;28;20114;-78
2021/11/01 03:40:27;;;;;;;869.88;541.75;;;;;;;;;;5070719;28;20032;-77
2021/11/01 03:42:54;;;;;;;870.17;543.38;;;;;;;;;;5089328;28;20028;-78
2021/11/01 03:45:21;;;;;;;860.80;519.03;;;;;;;;;;5089567;28;20016;-77
2021/11/01 03:47:48;;;;;;;864.17;528.65;;;;;;;;;;5069328;28;20351;-78
2021/11/01 03:52:50;;;;;;;862.50;526.38;;;;;;;;;;5089687;28;20536;-77
2021/11/01 03:55:17;;;;;;;866.83;534.80;;;;;;;;;;5089610;28;20020;-76
2021/11/01 03:57:43;;;;;;;866.28;536.65;;;;;;;;;;5071656;28;20634;-77
2021/11/01 04:00:09;;;;;;;867.22;537.55;;;;;;;;;;5083335;28;20361;-77
2021/11/01 04:02:35;;;;;;;859.10;510.17;;;;;;;;;;5071100;28;20035;-76
2021/11/01 04:05:01;;;;;;;866.35;530.25;;;;;;;;;;5070990;28;20028;-77
2021/11/01 04:07:28;;;;;;;887.60;552.85;;;;;;;;;;5070565;28;20122;-76
2021/11/01 04:09:55;;;;;;;871.05;545.00;;;;;;;;;;5070702;28;20060;-77
2021/11/01 04:12:21;;;;;;;868.95;543.05;;;;;;;;;;5070976;28;20109;-77
2021/11/01 04:14:54;;;;;;;868.03;550.10;;;;;;;;;;5071325;28;20111;-78
2021/11/01 04:17:38;;;;;;;857.17;516.17;;;;;;;;;;5070901;28;20480;-77
2021/11/01 04:22:50;;;;;;;874.47;559.53;;;;;;;;;;5077539;28;20036;-75
2021/11/01 04:25:17;;;;;;;867.25;538.45;;;;;;;;;;5069087;28;20024;-76
2021/11/01 04:27:44;;;;;;;866.10;541.95;;;;;;;;;;5068038;28;20370;-77
2021/11/01 04:30:11;;;;;;;864.05;535.33;;;;;;;;;;5067907;28;20025;-78
2021/11/01 04:35:11;;;;;;;876.13;560.88;;;;;;;;;;5068530;28;20036;-79
2021/11/01 04:37:38;;;;;;;866.28;531.90;;;;;;;;;;5082863;28;20544;-77
2021/11/01 04:53:13;;;;;;;875.13;531.50;;;;;;;;;;5075997;28;20074;-76
2021/11/01 04:55:42;;;;;;;864.45;527.22;;;;;;;;;;5087501;28;20111;-78
2021/11/01 04:58:08;;;;;;;859.05;514.53;;;;;;;;;;5070216;28;20110;-78
2021/11/01 05:00:35;;;;;;;872.40;552.10;;;;;;;;;;5073054;28;20107;-76
2021/11/01 05:03:08;;;;;;;861.30;518.20;;;;;;;;;;5091136;28;20028;-77
2021/11/01 05:05:34;;;;;;;863.30;524.35;;;;;;;;;;5074616;28;20032;-77
2021/11/01 05:08:00;;;;;;;863.13;525.65;;;;;;;;;;5063009;28;20461;-76
2021/11/01 05:10:41;;;;;;;864.55;524.83;;;;;;;;;;5074653;28;20032;-76
2021/11/01 05:13:11;;;;;;;;;;;;;;;;;;5093381;28;20028;-76
2021/11/01 05:15:47;;;;;;;857.10;487.85;;;;;;;;;;5092653;28;19926;-76
2021/11/01 05:18:29;;;;;;;855.65;492.85;;;;;;;;;;5066777;28;20052;-78
2021/11/01 05:21:07;;;;;;;857.42;499.77;;;;;;;;;;5084343;28;20023;-78
2021/11/01 05:23:40;;;;;;;853.53;486.48;;;;;;;;;;5074593;28;20020;-78
2021/11/01 05:26:11;;;;;;;854.67;491.08;;;;;;;;;;5076597;28;20028;-77
2021/11/01 05:31:10;;;;;;;857.67;504.30;;;;;;;;;;5071992;28;20396;-76
2021/11/01 05:36:11;;;;;;;859.85;509.80;;;;;;;;;;5075232;28;20028;-78
2021/11/01 05:38:37;;;;;;;863.97;519.00;;;;;;;;;;5070361;28;20025;-76
2021/11/01 05:41:04;;;;;;;868.80;539.72;;;;;;;;;;5088521;28;20039;-77
2021/11/01 05:43:30;;;;;;;858.55;505.08;;;;;;;;;;5074291;28;20131;-77
2021/11/01 05:45:56;;;;;;;859.10;508.48;;;;;;;;;;5074284;28;20536;-76
2021/11/01 05:48:22;;;;;;;859.92;509.40;;;;;;;;;;5086995;28;20055;-78
2021/11/01 05:50:48;;;;;;;857.92;507.48;;;;;;;;;;5061498;28;20060;-77
2021/11/01 05:53:15;;;;;;;862.10;521.42;;;;;;;;;;5060754;28;20032;-77
2021/11/01 05:55:53;;;;;;;859.58;505.48;;;;;;;;;;5065430;28;20272;-77
2021/11/01 05:58:43;;;;;;;866.40;523.03;;;;;;;;;;5058020;28;20131;-76
2021/11/01 06:01:34;;;;;;;859.63;500.92;;;;;;;;;;5058284;28;20438;-77
2021/11/01 06:04:05;;;;;;;864.35;520.00;;;;;;;;;;5069222;28;20480;-78
2021/11/01 06:14:29;;;;;;;860.45;517.97;;;;;;;;;;5069379;28;20043;-77
2021/11/01 06:16:55;;;;;;;864.08;528.53;;;;;;;;;;5071330;28;20021;-77
2021/11/01 06:19:21;;;;;;;860.45;521.00;;;;;;;;;;5080684;28;20115;-78
2021/11/01 06:21:48;;;;;;;865.72;527.03;;;;;;;;;;5072293;28;20516;-77
2021/11/01 06:26:59;;;;;;;872.30;556.08;;;;;;;;;;5081963;28;20044;-78
2021/11/01 06:29:30;;;;;;;868.05;542.15;;;;;;;;;;5089386;28;20024;-77
2021/11/01 06:32:10;;;;;;;879.47;557.75;;;;;;;;;;5091551;28;20433;-77
2021/11/01 06:40:11;;;;;;;871.63;551.55;;;;;;;;;;5090860;28;20525;-77
2021/11/01 06:42:40;;;;;;;857.53;501.55;;;;;;;;;;5073020;28;20039;-78
2021/11/01 07:15:44;;;;;;;861.78;518.13;;;;;;;;;;5090743;28;20129;-77
2021/11/01 07:18:19;;;;;;;859.28;509.10;;;;;;;;;;5087796;28;20703;-77
2021/11/01 08:49:42;;;;;;;868.03;553.65;;;;;;;;;;5091297;28;20074;-76
2021/11/01 09:25:42;;;;;;;860.42;532.25;;;;;;;;;;5053675;28;20050;-79
2021/11/01 09:28:14;;;;;;;871.58;575.92;;;;;;;;;;5084206;28;20035;-78
2021/11/01 09:36:35;;;;;;;868.38;573.25;;;;;;;;;;5085110;28;20115;-76
2021/11/01 09:41:48;;;;;;;856.17;532.58;;;;;;;;;;5085052;28;20414;-78
2021/11/01 09:44:20;;;;;;;854.90;535.22;;;;;;;;;;5063521;28;20036;-78
2021/11/01 09:46:46;;;;;;;859.15;547.90;;;;;;;;;;5069852;28;20390;-77
2021/11/01 09:51:38;;;;;;;865.65;570.92;;;;;;;;;;5084266;28;20333;-77
2021/11/01 09:54:07;;;;;;;860.45;553.70;;;;;;;;;;5060134;28;20039;-77
2021/11/01 09:56:46;;;;;;;859.80;563.92;;;;;;;;;;5065637;28;20042;-78
2021/11/01 09:59:14;;;;;;;859.83;548.42;;;;;;;;;;5085767;28;20024;-78
2021/11/01 10:01:41;;;;;;;856.92;542.20;;;;;;;;;;5084817;28;20169;-78
2021/11/01 10:04:18;;;;;;;863.08;563.25;;;;;;;;;;5084877;28;20423;-77
2021/11/01 10:06:48;;;;;;;859.90;549.42;;;;;;;;;;5085150;28;20491;-79
2021/11/01 10:09:14;;;;;;;873.85;583.60;;;;;;;;;;5085013;28;20016;-78
2021/11/01 10:11:44;;;;;;;859.10;556.05;;;;;;;;;;5079597;28;20029;-77
2021/11/01 10:14:10;;;;;;;863.58;573.28;;;;;;;;;;5072501;28;20020;-77
2021/11/01 10:19:41;;;;;;;863.13;578.85;;;;;;;;;;5078928;28;20067;-77
2021/11/01 10:22:35;;;;;;;869.58;602.45;;;;;;;;;;5086026;28;20047;-76
2021/11/01 10:25:01;;;;;;;864.00;593.33;;;;;;;;;;5073137;28;20024;-77
2021/11/01 10:27:29;;;;;;;870.00;613.00;;;;;;;;;;5088250;28;20031;-77
2021/11/01 10:29:57;;;;;;;869.95;623.33;;;;;;;;;;5058389;28;20048;-79
2021/11/01 10:32:36;;;;;;;873.40;641.20;;;;;;;;;;5080511;28;20016;-78
2021/11/01 10:35:15;;;;;;;877.53;635.00;;;;;;;;;;5063451;28;20099;-76
2021/11/01 10:37:43;;;;;;;867.03;604.05;;;;;;;;;;5066204;28;20077;-79
2021/11/01 10:40:10;;;;;;;866.35;601.22;;;;;;;;;;5081130;28;20107;-79
2021/11/01 10:42:44;;;;;;;886.47;636.85;;;;;;;;;;5082754;28;20123;-79
2021/11/01 10:56:35;;;;;;;870.70;618.60;;;;;;;;;;5082457;28;20082;-80
2021/11/01 11:13:08;;;;;;;877.88;637.40;;;;;;;;;;5084275;28;20132;-77
2021/11/01 11:15:37;;;;;;;875.55;631.22;;;;;;;;;;5067977;28;20494;-79
2021/11/01 11:21:32;;;;;;;874.15;630.10;;;;;;;;;;5015500;28;20045;-77
2021/11/01 11:26:53;;;;;;;868.45;607.22;;;;;;;;;;5075904;28;20391;-79
2021/11/01 11:29:55;;;;;;;868.17;603.80;;;;;;;;;;5088539;28;20532;-77
2021/11/01 11:48:50;;;;;;;869.35;609.13;;;;;;;;;;5044797;28;20027;-80
2021/11/01 11:51:17;;;;;;;869.65;624.75;;;;;;;;;;5043086;28;20115;-79
2021/11/01 11:53:55;;;;;;;873.17;639.22;;;;;;;;;;5045728;28;20033;-79
2021/11/01 11:56:27;;;;;;;874.67;629.58;;;;;;;;;;5027175;28;20025;-78
2021/11/01 11:58:57;;;;;;;874.50;636.92;;;;;;;;;;5043164;28;20128;-78
2021/11/01 12:01:29;;;;;;;872.75;633.17;;;;;;;;;;5023601;28;20032;-78
2021/11/01 12:03:56;;;;;;;872.33;624.50;;;;;;;;;;5077863;28;20048;-78
2021/11/01 12:06:44;;;;;;;880.28;661.53;;;;;;;;;;5087632;28;20332;-78
2021/11/01 12:09:13;;;;;;;879.92;650.97;;;;;;;;;;5072781;28;20028;-79
2021/11/01 12:11:56;;;;;;;873.20;629.37;;;;;;;;;;5074543;28;20028;-79
2021/11/01 12:14:42;;;;;;;873.13;629.80;;;;;;;;;;5079097;28;20413;-79
2021/11/01 12:17:11;;;;;;;877.38;641.40;;;;;;;;;;5085379;28;20165;-78
2021/11/01 12:19:37;;;;;;;878.67;659.65;;;;;;;;;;5065589;28;20028;-79
2021/11/01 12:22:06;;;;;;;876.83;640.67;;;;;;;;;;5061901;28;20237;-79
2021/11/01 12:24:33;;;;;;;878.70;641.28;;;;;;;;;;5065494;28;20039;-78
2021/11/01 12:27:03;;;;;;;880.47;657.97;;;;;;;;;;5065711;28;20032;-80
2021/11/01 12:29:30;;;;;;;876.60;642.53;;;;;;;;;;5066045;28;20132;-80
2021/11/01 12:32:06;;;;;;;878.17;642.47;;;;;;;;;;5065393;28;20028;-76
2021/11/01 12:34:36;;;;;;;886.13;678.10;;;;;;;;;;5066181;28;20028;-77
2021/11/01 12:39:41;;;;;;;890.08;696.13;;;;;;;;;;5083388;28;20036;-78
2021/11/01 12:45:43;;;;;;;894.88;708.05;;;;;;;;;;5082527;28;20156;-77
2021/11/01 12:58:48;;;;;;;875.58;639.17;;;;;;;;;;5082764;28;20030;-80
2021/11/01 13:01:16;;;;;;;876.95;635.50;;;;;;;;;;5066159;28;20073;-78
2021/11/01 13:03:50;;;;;;;886.17;667.40;;;;;;;;;;5068884;28;20263;-77
2021/11/01 13:06:26;;;;;;;878.22;641.30;;;;;;;;;;5082511;28;20023;-77
2021/11/01 13:08:55;;;;;;;880.45;656.25;;;;;;;;;;5083880;28;20027;-80
2021/11/01 13:19:27;;;;;;;898.53;721.22;;;;;;;;;;5015883;28;20073;-78
2021/11/01 13:24:25;;;;;;;893.88;714.38;;;;;;;;;;5083356;28;20036;-80
2021/11/01 13:27:13;;;;;;;885.10;676.80;;;;;;;;;;5062701;28;20032;-77
2021/11/01 13:37:55;;;;;;;882.20;666.10;;;;;;;;;;5082122;28;20045;-79
2021/11/01 13:40:21;;;;;;;886.92;680.10;;;;;;;;;;5065961;28;20283;-77
2021/11/01 13:42:54;;;;;;;887.28;686.08;;;;;;;;;;5063861;28;20121;-78
2021/11/01 13:45:21;;;;;;;908.42;750.50;;;;;;;;;;5064640;28;20070;-76
2021/11/01 13:47:55;;;;;;;901.80;732.53;;;;;;;;;;5080957;28;20032;-79
2021/11/01 13:50:22;;;;;;;900.15;728.95;;;;;;;;;;5079747;28;20032;-76
2021/11/01 13:53:03;;;;;;;894.40;711.95;;;;;;;;;;5064525;28;20032;-79
2021/11/01 13:55:47;;;;;;;891.72;697.78;;;;;;;;;;5086829;28;20045;-80
2021/11/01 14:01:21;;;;;;;882.75;667.83;;;;;;;;;;5080858;28;20236;-78
2021/11/01 14:12:30;;;;;;;899.90;717.40;;;;;;;;;;5081560;28;20136;-78
2021/11/01 14:14:52;;;;;;;886.70;675.58;;;;;;;;;;5077669;28;20028;-78
2021/11/01 14:20:32;;;;;;;882.88;651.47;;;;;;;;;;5082749;28;20558;-78
2021/11/01 14:31:42;;;;;;;876.17;625.70;;;;;;;;;;5080319;28;20058;-77
2021/11/01 14:59:31;;;;;;;892.35;692.28;;;;;;;;;;5086600;28;20090;-78
2021/11/01 15:09:53;;;;;;;881.80;652.33;;;;;;;;;;5091651;28;20032;-81
2021/11/01 15:15:15;;;;;;;897.67;697.92;;;;;;;;;;5086063;28;20578;-77
2021/11/01 15:38:51;;;;;;;885.42;649.30;;;;;;;;;;5084673;28;20036;-77
2021/11/01 16:19:25;;;;;;;899.05;708.28;;;;;;;;;;5086680;28;20039;-77
2021/11/01 16:21:51;;;;;;;883.70;647.28;;;;;;;;;;5072620;28;20031;-78
2021/11/01 16:24:17;;;;;;;895.20;685.38;;;;;;;;;;5080399;28;20088;-78
2021/11/01 16:26:44;;;;;;;898.83;696.70;;;;;;;;;;5079079;28;20089;-77
2021/11/01 16:29:19;;;;;;;877.38;630.20;;;;;;;;;;5083189;28;20487;-79
2021/11/01 16:31:55;;;;;;;876.42;617.75;;;;;;;;;;5088675;28;20111;-77
2021/11/01 16:34:25;;;;;;;874.90;602.42;;;;;;;;;;5070051;28;20309;-77
2021/11/01 16:39:38;;;;;;;878.90;630.13;;;;;;;;;;5088390;28;20073;-77
2021/11/01 16:42:04;;;;;;;873.72;597.53;;;;;;;;;;5089007;28;20026;-76
2021/11/01 16:44:32;;;;;;;872.10;601.08;;;;;;;;;;5087524;28;20028;-78
2021/11/01 16:46:59;;;;;;;887.30;659.95;;;;;;;;;;5064851;28;20446;-77
2021/11/01 16:49:27;;;;;;;878.00;623.03;;;;;;;;;;5085977;28;20572;-77
2021/11/01 16:51:53;;;;;;;885.42;660.63;;;;;;;;;;5069916;28;20024;-77
2021/11/01 16:54:24;;;;;;;880.85;637.40;;;;;;;;;;5068886;28;20490;-78
2021/11/01 16:57:10;;;;;;;873.60;609.65;;;;;;;;;;5063449;28;20028;-78
2021/11/01 16:59:51;;;;;;;876.47;617.47;;;;;;;;;;5067267;28;20028;-77
2021/11/01 17:04:49;;;;;;;877.13;618.45;;;;;;;;;;5089176;28;20063;-77
2021/11/01 17:34:39;;;;;;;864.60;561.53;;;;;;;;;;5085227;28;20053;-77
2021/11/01 17:37:09;;;;;;;874.65;601.83;;;;;;;;;;5085333;28;20149;-77
2021/11/01 18:36:10;;;;;;;852.55;496.42;;;;;;;;;;5085698;28;20073;-78
2021/11/01 18:51:48;;;;;;;846.63;481.17;;;;;;;;;;5087251;28;20514;-77
2021/11/01 18:54:22;;;;;;;854.83;510.67;;;;;;;;;;5087073;28;20016;-77
2021/11/01 18:56:49;;;;;;;854.85;503.83;;;;;;;;;;5087225;28;20023;-77
2021/11/01 18:59:16;;;;;;;839.67;464.73;;;;;;;;;;5068652;28;20025;-77
2021/11/01 19:01:44;;;;;;;845.47;479.88;;;;;;;;;;5066722;28;20064;-77
2021/11/01 19:04:28;;;;;;;846.35;477.52;;;;;;;;;;5084794;28;20323;-77
2021/11/01 19:07:17;;;;;;;850.15;478.23;;;;;;;;;;5087129;28;20032;-77
2021/11/01 19:10:02;;;;;;;853.95;491.92;;;;;;;;;;5059850;28;20031;-77
2021/11/01 19:16:20;;;;;;;846.67;465.92;;;;;;;;;;5090985;28;20034;-78
2021/11/01 20:13:20;;;;;;;840.85;441.10;;;;;;;;;;5088582;28;20039;-78
2021/11/01 21:25:24;;;;;;;841.25;425.23;;;;;;;;;;5081231;28;20050;-76
2021/11/01 21:27:51;;;;;;;835.58;430.33;;;;;;;;;;5069066;28;20081;-77
2021/11/01 21:30:17;;;;;;;841.88;432.35;;;;;;;;;;5079319;28;20020;-78
2021/11/01 21:32:43;;;;;;;837.78;425.90;;;;;;;;;;5083104;28;20020;-77
2021/11/01 21:35:12;;;;;;;834.50;432.20;;;;;;;;;;5082549;28;20024;-78
2021/11/01 21:37:38;;;;;;;838.60;430.83;;;;;;;;;;5070969;28;21302;-77
2021/11/01 21:40:05;;;;;;;837.33;429.92;;;;;;;;;;5084391;28;20031;-77
2021/11/01 21:42:31;;;;;;;834.60;425.83;;;;;;;;;;5059335;28;20656;-77
2021/11/01 21:44:58;;;;;;;837.33;428.85;;;;;;;;;;5082993;28;20032;-77
2021/11/01 21:47:24;;;;;;;839.80;436.27;;;;;;;;;;5083932;28;20039;-77
2021/11/01 21:49:50;;;;;;;839.88;433.67;;;;;;;;;;5060977;28;20034;-77
2021/11/01 21:52:17;;;;;;;840.92;430.30;;;;;;;;;;5077226;28;20028;-77
2021/11/01 21:54:47;;;;;;;838.03;428.48;;;;;;;;;;5081135;28;20024;-77
2021/11/01 21:57:21;;;;;;;841.38;432.92;;;;;;;;;;5064212;28;20024;-77
2021/11/01 22:21:44;;;;;;;838.97;430.13;;;;;;;;;;5078166;28;20032;-77
2021/11/01 22:39:56;;;;;;;837.22;419.75;;;;;;;;;;5083843;28;20071;-77
2021/11/01 22:45:09;;;;;;;838.47;432.38;;;;;;;;;;5080732;28;20039;-77
2021/11/01 22:47:59;;;;;;;837.40;427.00;;;;;;;;;;5080772;28;20612;-78
2021/11/01 22:56:01;;;;;;;833.50;409.02;;;;;;;;;;5069325;28;20123;-77
2021/11/01 22:58:28;;;;;;;833.45;418.60;;;;;;;;;;5075267;28;20035;-77
2021/11/01 23:01:03;;;;;;;830.47;409.13;;;;;;;;;;5070938;28;20035;-77
2021/11/01 23:04:26;;;;;;;826.08;411.55;;;;;;;;;;5086195;28;20464;-77
2021/11/01 23:33:46;;;;;;;837.80;416.50;;;;;;;;;;5072535;28;20445;-77
2021/11/01 23:36:12;;;;;;;840.13;423.90;;;;;;;;;;5075924;28;20029;-78
2021/11/01 23:38:38;;;;;;;835.92;417.58;;;;;;;;;;5067587;28;20024;-77
2021/11/01 23:41:04;;;;;;;832.85;418.88;;;;;;;;;;5055598;28;20465;-77
2021/11/01 23:43:30;;;;;;;835.13;415.80;;;;;;;;;;5068918;28;20028;-77
2021/11/01 23:45:56;;;;;;;837.53;415.25;;;;;;;;;;5055099;28;20020;-77
2021/11/01 23:48:22;;;;;;;839.45;419.23;;;;;;;;;;5051330;28;20051;-78
2021/11/01 23:50:49;;;;;;;840.30;425.00;;;;;;;;;;5056854;28;20028;-78
2021/11/01 23:53:19;;;;;;;838.72;421.20;;;;;;;;;;5057459;28;20024;-76
2021/11/01 23:55:45;;;;;;;836.38;422.60;;;;;;;;;;5074648;28;20352;-78
2021/11/01 23:58:12;;;;;;;829.33;400.95;;;;;;;;;;5066196;28;20259;-78
